Time;durP1;ratioP1;P1;durP2;ratioP2;P2;SDS_P1;SDS_P2;PMS_P1;PMS_P2;Temp;Humidity;BMP_temperature;BMP_pressure;BME280_temperature;BME280_humidity;BME280_pressure;Samples;Min_cycle;Max_cycle;Signal;HPM_P1;HPM_P2
2023/07/11 00:00:00;;;;;;;3.30;1.37;;;18.70;1.00;;;;;;5095764;28;20182;-45
2023/07/11 00:02:26;;;;;;;5.23;1.53;;;18.70;1.00;;;;;;5095833;28;20179;-46
2023/07/11 00:04:52;;;;;;;3.07;1.50;;;18.60;1.00;;;;;;5095592;28;20191;-47
2023/07/11 00:07:17;;;;;;;2.97;1.30;;;18.60;1.00;;;;;;5096101;28;20211;-45
2023/07/11 00:09:46;;;;;;;4.47;1.70;;;18.60;1.00;;;;;;5095687;28;20179;-46
2023/07/11 00:12:12;;;;;;;6.67;1.60;;;18.50;1.00;;;;;;5095704;28;20229;-47
2023/07/11 00:14:38;;;;;;;3.23;1.40;;;18.50;1.00;;;;;;5095599;28;20203;-46
2023/07/11 00:17:04;;;;;;;3.83;1.50;;;18.40;1.00;;;;;;5095352;28;20243;-47
2023/07/11 00:19:31;;;;;;;2.07;1.40;;;18.40;1.00;;;;;;5095585;28;20182;-47
2023/07/11 00:21:57;;;;;;;5.03;1.43;;;18.40;1.00;;;;;;5095336;28;20662;-47
2023/07/11 00:24:22;;;;;;;5.67;1.77;;;18.30;1.00;;;;;;5095197;28;20179;-46
2023/07/11 00:26:48;;;;;;;4.33;1.60;;;18.30;1.00;;;;;;5095842;28;20611;-46
2023/07/11 00:29:20;;;;;;;2.43;1.27;;;18.20;1.00;;;;;;5096466;28;20182;-48
2023/07/11 00:31:46;;;;;;;6.93;1.90;;;18.20;1.00;;;;;;5096053;28;20534;-41
2023/07/11 00:34:12;;;;;;;4.93;1.60;;;18.10;1.00;;;;;;5095676;28;20270;-42
2023/07/11 00:36:37;;;;;;;5.90;1.50;;;18.10;1.00;;;;;;5095389;28;20218;-41
2023/07/11 00:39:04;;;;;;;5.40;1.97;;;18.10;1.00;;;;;;5094579;28;20195;-40
2023/07/11 00:41:31;;;;;;;3.93;1.47;;;18.00;1.00;;;;;;5094948;28;20567;-41
2023/07/11 00:43:57;;;;;;;3.10;1.53;;;18.00;1.00;;;;;;5094963;28;20700;-42
2023/07/11 00:46:22;;;;;;;4.80;1.70;;;18.00;1.00;;;;;;5094839;28;20214;-41
2023/07/11 00:48:54;;;;;;;5.07;1.90;;;17.90;1.00;;;;;;5095756;28;20187;-44
2023/07/11 00:51:46;;;;;;;5.47;1.70;;;17.90;1.00;;;;;;5095166;28;20191;-45
2023/07/11 00:54:16;;;;;;;4.17;1.70;;;17.90;1.00;;;;;;5095671;28;20657;-45
2023/07/11 00:56:45;;;;;;;6.03;2.13;;;17.90;1.00;;;;;;5094721;28;20186;-46
2023/07/11 00:59:16;;;;;;;3.97;1.70;;;17.90;1.00;;;;;;5094997;28;20206;-46
2023/07/11 01:01:46;;;;;;;4.57;2.07;;;17.90;1.00;;;;;;5094902;28;20205;-47
2023/07/11 01:04:14;;;;;;;8.53;1.80;;;17.90;1.00;;;;;;5094493;28;20163;-46
2023/07/11 01:06:40;;;;;;;9.57;1.83;;;17.90;1.00;;;;;;5094669;28;20234;-47
2023/07/11 01:09:07;;;;;;;1.80;1.50;;;17.90;1.00;;;;;;5094409;28;20182;-45
2023/07/11 01:11:51;;;;;;;3.90;1.67;;;17.80;1.00;;;;;;5094266;28;20228;-45
2023/07/11 01:14:17;;;;;;;6.10;1.83;;;17.90;1.00;;;;;;5094487;28;20167;-46
2023/07/11 01:16:44;;;;;;;6.60;1.90;;;17.80;1.00;;;;;;5094366;28;20182;-44
2023/07/11 01:19:09;;;;;;;5.63;1.23;;;17.80;1.00;;;;;;5094406;28;20214;-45
2023/07/11 01:21:35;;;;;;;3.80;1.70;;;17.70;1.00;;;;;;5094489;28;20256;-46
2023/07/11 01:24:01;;;;;;;5.00;1.80;;;17.70;1.00;;;;;;5094187;28;20189;-46
2023/07/11 01:26:26;;;;;;;6.67;2.03;;;17.60;1.00;;;;;;5093916;28;20215;-46
2023/07/11 01:28:52;;;;;;;5.30;1.77;;;17.60;1.00;;;;;;5094028;28;20182;-46
2023/07/11 01:31:17;;;;;;;8.20;2.50;;;17.60;1.00;;;;;;5094273;28;20627;-46
2023/07/11 01:33:43;;;;;;;3.33;1.73;;;17.50;1.00;;;;;;5094155;28;20214;-45
2023/07/11 01:36:08;;;;;;;7.50;1.97;;;17.50;1.00;;;;;;5094165;28;20206;-46
2023/07/11 01:38:34;;;;;;;4.33;1.77;;;17.40;1.00;;;;;;5094077;28;20270;-46
2023/07/11 01:40:59;;;;;;;5.77;1.90;;;17.40;1.00;;;;;;5093890;28;20183;-44
2023/07/11 01:43:26;;;;;;;4.47;2.03;;;17.40;1.00;;;;;;5094076;28;20545;-46
2023/07/11 01:45:51;;;;;;;4.03;2.00;;;17.30;1.00;;;;;;5093778;28;20209;-45
2023/07/11 01:48:17;;;;;;;4.30;1.90;;;17.30;1.00;;;;;;5095665;28;20176;-41
2023/07/11 01:50:43;;;;;;;3.30;2.37;;;17.20;1.00;;;;;;5093195;28;20267;-41
2023/07/11 01:53:08;;;;;;;3.83;1.80;;;17.20;1.00;;;;;;5094053;28;20194;-40
2023/07/11 01:55:34;;;;;;;3.63;1.80;;;17.20;1.00;;;;;;5093555;28;20743;-41
2023/07/11 01:57:59;;;;;;;7.63;2.10;;;17.10;1.00;;;;;;5093622;28;20208;-41
2023/07/11 02:00:25;;;;;;;6.00;2.10;;;17.10;1.00;;;;;;5093649;28;20179;-40
2023/07/11 02:02:51;;;;;;;5.97;2.17;;;17.10;1.00;;;;;;5093546;28;20187;-41
2023/07/11 02:05:16;;;;;;;5.13;1.93;;;17.00;1.00;;;;;;5093644;28;20210;-43
2023/07/11 02:07:42;;;;;;;4.17;1.70;;;17.00;1.00;;;;;;5093703;28;20210;-42
2023/07/11 02:10:08;;;;;;;9.13;2.83;;;17.00;1.00;;;;;;5093577;28;20202;-41
2023/07/11 02:12:34;;;;;;;7.03;2.63;;;17.00;1.00;;;;;;5093728;28;20285;-42
2023/07/11 02:15:00;;;;;;;3.27;1.93;;;17.00;1.00;;;;;;5093740;28;20232;-42
2023/07/11 02:17:25;;;;;;;11.03;2.30;;;17.00;1.00;;;;;;5093397;28;20256;-43
2023/07/11 02:19:51;;;;;;;5.23;2.17;;;16.90;1.00;;;;;;5093687;28;20214;-41
2023/07/11 02:22:17;;;;;;;7.17;1.97;;;16.90;1.00;;;;;;5093314;28;20631;-42
2023/07/11 02:24:42;;;;;;;4.47;1.83;;;16.90;1.00;;;;;;5093410;28;20205;-41
2023/07/11 02:27:08;;;;;;;5.33;2.50;;;16.90;1.00;;;;;;5093537;28;20203;-40
2023/07/11 02:29:34;;;;;;;3.33;1.80;;;16.90;1.00;;;;;;5093930;28;20227;-40
2023/07/11 02:31:59;;;;;;;3.70;1.70;;;16.80;1.00;;;;;;5093404;28;20632;-42
2023/07/11 02:34:25;;;;;;;4.03;2.30;;;16.80;1.00;;;;;;5093372;28;20178;-42
2023/07/11 02:36:51;;;;;;;5.13;2.00;;;16.70;1.00;;;;;;5093948;28;20507;-42
2023/07/11 02:39:17;;;;;;;5.60;2.10;;;16.70;1.00;;;;;;5093430;28;20589;-41
2023/07/11 02:41:43;;;;;;;8.40;2.40;;;16.60;1.00;;;;;;5093436;28;20180;-41
2023/07/11 02:44:09;;;;;;;9.93;2.10;;;16.60;1.00;;;;;;5093542;28;20258;-43
2023/07/11 02:46:35;;;;;;;8.53;2.60;;;16.60;1.00;;;;;;5093233;28;20259;-43
2023/07/11 02:49:01;;;;;;;8.03;2.30;;;16.60;1.00;;;;;;5094953;28;20178;-42
2023/07/11 02:51:26;;;;;;;7.37;1.90;;;16.60;1.00;;;;;;5093361;28;20175;-41
2023/07/11 02:53:52;;;;;;;5.87;2.03;;;16.50;1.00;;;;;;5093867;28;20255;-42
2023/07/11 02:56:19;;;;;;;8.73;2.53;;;16.50;1.00;;;;;;5093289;28;20199;-42
2023/07/11 02:58:46;;;;;;;5.03;2.00;;;16.40;1.00;;;;;;5094360;28;20190;-42
2023/07/11 03:01:12;;;;;;;6.67;2.00;;;16.40;1.00;;;;;;5093751;28;20542;-43
2023/07/11 03:03:38;;;;;;;6.67;2.00;;;16.40;1.00;;;;;;5096721;28;20178;-41
2023/07/11 03:06:04;;;;;;;3.97;2.30;;;16.40;1.00;;;;;;5098227;28;20206;-44
2023/07/11 03:08:29;;;;;;;8.50;2.23;;;16.40;1.00;;;;;;5097709;28;20167;-42
2023/07/11 03:11:01;;;;;;;5.67;2.30;;;16.40;1.00;;;;;;5097270;28;20192;-40
2023/07/11 03:13:27;;;;;;;4.13;1.87;;;16.40;1.00;;;;;;5096941;28;20186;-41
2023/07/11 03:15:52;;;;;;;6.47;2.17;;;16.30;1.00;;;;;;5096890;28;20672;-42
2023/07/11 03:18:18;;;;;;;6.70;2.03;;;16.30;1.00;;;;;;5096978;28;20179;-41
2023/07/11 03:20:44;;;;;;;4.50;2.27;;;16.30;1.00;;;;;;5097581;28;20171;-42
2023/07/11 03:23:12;;;;;;;5.97;2.60;;;16.30;1.00;;;;;;5096802;28;20589;-40
2023/07/11 03:25:38;;;;;;;6.80;2.40;;;16.30;1.00;;;;;;5099932;28;20195;-41
2023/07/11 03:28:04;;;;;;;6.60;1.90;;;16.20;1.00;;;;;;5099994;28;20205;-42
2023/07/11 03:30:31;;;;;;;8.43;2.10;;;16.20;1.00;;;;;;5100840;28;20205;-42
2023/07/11 03:32:56;;;;;;;4.43;2.10;;;16.20;1.00;;;;;;5098649;28;20205;-42
2023/07/11 03:35:22;;;;;;;7.33;2.30;;;16.20;1.00;;;;;;5096482;28;20226;-40
2023/07/11 03:37:47;;;;;;;6.07;2.30;;;16.20;1.00;;;;;;5096574;28;20187;-40
2023/07/11 03:40:13;;;;;;;7.47;1.93;;;16.20;1.00;;;;;;5097037;28;20194;-40
2023/07/11 03:42:39;;;;;;;5.23;2.10;;;16.20;1.00;;;;;;5096259;28;20179;-42
2023/07/11 03:45:05;;;;;;;6.67;2.07;;;16.10;1.00;;;;;;5096642;28;20234;-42
2023/07/11 03:47:30;;;;;;;4.03;1.97;;;16.10;1.00;;;;;;5096471;28;20209;-40
2023/07/11 03:49:56;;;;;;;3.93;1.87;;;16.10;1.00;;;;;;5096821;28;20175;-45
2023/07/11 03:52:21;;;;;;;7.00;2.30;;;16.10;1.00;;;;;;5096596;28;20167;-47
2023/07/11 03:54:47;;;;;;;6.67;2.30;;;16.10;1.00;;;;;;5096677;28;20195;-45
2023/07/11 03:57:13;;;;;;;5.93;2.10;;;16.10;1.00;;;;;;5095920;28;20662;-45
2023/07/11 03:59:38;;;;;;;5.77;2.13;;;16.10;1.00;;;;;;5095895;28;20217;-45
2023/07/11 04:02:04;;;;;;;5.73;2.40;;;16.00;1.00;;;;;;5096068;28;20205;-45
2023/07/11 04:04:30;;;;;;;5.60;2.37;;;16.10;1.00;;;;;;5095863;28;20167;-44
2023/07/11 04:06:56;;;;;;;7.37;2.23;;;16.10;1.00;;;;;;5095541;28;20202;-44
2023/07/11 04:09:21;;;;;;;9.13;2.67;;;16.00;1.00;;;;;;5095805;28;20201;-47
2023/07/11 04:11:47;;;;;;;4.47;2.00;;;16.00;1.00;;;;;;5095888;28;20179;-45
2023/07/11 04:14:12;;;;;;;5.63;2.23;;;16.10;1.00;;;;;;5094762;28;20176;-46
2023/07/11 04:16:38;;;;;;;5.67;1.97;;;16.10;1.00;;;;;;5095497;28;20203;-45
2023/07/11 04:19:03;;;;;;;5.80;2.20;;;16.10;1.00;;;;;;5095489;28;20203;-45
2023/07/11 04:21:29;;;;;;;5.43;2.40;;;16.10;1.00;;;;;;5095454;28;20171;-46
2023/07/11 04:23:55;;;;;;;9.07;2.47;;;16.20;1.00;;;;;;5095822;28;20181;-46
2023/07/11 04:26:20;;;;;;;6.70;2.00;;;16.20;1.00;;;;;;5095120;28;20759;-44
2023/07/11 04:28:46;;;;;;;9.40;2.27;;;16.20;1.00;;;;;;5095710;28;20508;-46
2023/07/11 04:31:13;;;;;;;7.27;2.10;;;16.30;1.00;;;;;;5095136;28;20171;-44
2023/07/11 04:33:38;;;;;;;9.43;2.20;;;16.30;1.00;;;;;;5095390;28;20179;-44
2023/07/11 04:36:07;;;;;;;6.80;2.40;;;16.30;1.00;;;;;;5095013;28;20214;-45
2023/07/11 04:38:33;;;;;;;6.07;2.57;;;16.40;1.00;;;;;;5093977;28;20175;-44
2023/07/11 04:41:03;;;;;;;5.03;2.20;;;16.40;1.00;;;;;;5095267;28;20278;-45
2023/07/11 04:43:29;;;;;;;9.63;2.43;;;16.40;1.00;;;;;;5095347;28;20159;-45
2023/07/11 04:45:58;;;;;;;4.30;2.20;;;16.50;1.00;;;;;;5093601;28;20203;-45
2023/07/11 04:48:24;;;;;;;8.07;2.60;;;16.50;1.00;;;;;;5096402;28;20205;-47
2023/07/11 04:51:05;;;;;;;2.77;2.23;;;16.60;1.00;;;;;;5095307;28;20175;-46
2023/07/11 04:53:32;;;;;;;4.83;2.30;;;16.60;1.00;;;;;;5095020;28;20166;-46
2023/07/11 04:56:04;;;;;;;7.20;2.33;;;16.70;1.00;;;;;;5094605;28;20236;-46
2023/07/11 04:58:31;;;;;;;7.00;2.47;;;16.80;1.00;;;;;;5094641;28;20273;-47
2023/07/11 05:01:13;;;;;;;6.33;2.33;;;16.90;1.00;;;;;;5094593;28;20179;-47
2023/07/11 05:03:39;;;;;;;10.70;2.40;;;16.90;1.00;;;;;;5094814;28;20166;-45
2023/07/11 05:06:06;;;;;;;9.57;2.63;;;17.00;1.00;;;;;;5094327;28;20195;-46
2023/07/11 05:08:32;;;;;;;5.33;2.00;;;17.00;1.00;;;;;;5094806;28;20175;-46
2023/07/11 05:11:18;;;;;;;4.23;2.17;;;17.10;1.00;;;;;;5094413;28;20170;-46
2023/07/11 05:13:45;;;;;;;6.53;2.30;;;17.20;1.00;;;;;;5094381;28;20627;-45
2023/07/11 05:16:15;;;;;;;5.93;2.37;;;17.30;1.00;;;;;;5093001;28;20546;-47
2023/07/11 05:18:40;;;;;;;4.03;2.00;;;17.30;1.00;;;;;;5094432;28;20179;-46
2023/07/11 05:21:08;;;;;;;5.87;2.07;;;17.40;1.00;;;;;;5094260;28;20193;-47
2023/07/11 05:23:34;;;;;;;5.07;2.43;;;17.50;1.00;;;;;;5094741;28;20255;-47
2023/07/11 05:26:00;;;;;;;5.93;2.30;;;17.60;1.00;;;;;;5094031;28;20237;-45
2023/07/11 05:28:26;;;;;;;7.57;2.30;;;17.70;1.00;;;;;;5094370;28;20180;-46
2023/07/11 05:30:53;;;;;;;5.37;2.37;;;17.80;3.80;;;;;;5094099;28;20202;-46
2023/07/11 05:33:19;;;;;;;5.57;2.43;;;17.90;1.00;;;;;;5094050;28;20170;-46
2023/07/11 05:35:57;;;;;;;3.40;2.13;;;17.90;1.00;;;;;;5093997;28;20190;-47
2023/07/11 05:38:24;;;;;;;4.23;2.13;;;18.00;1.00;;;;;;5092615;28;20203;-47
2023/07/11 05:40:50;;;;;;;3.80;1.80;;;18.20;1.00;;;;;;5093972;28;20194;-47
2023/07/11 05:43:15;;;;;;;4.57;2.30;;;18.30;1.00;;;;;;5094137;28;20206;-46
2023/07/11 05:45:43;;;;;;;8.43;2.80;;;18.40;1.00;;;;;;5093790;28;20729;-48
2023/07/11 05:48:09;;;;;;;6.30;2.77;;;18.40;1.00;;;;;;5094831;28;20206;-47
2023/07/11 05:50:35;;;;;;;5.90;2.20;;;18.60;1.00;;;;;;5093875;28;20185;-46
2023/07/11 05:53:00;;;;;;;5.63;2.33;;;18.70;1.00;;;;;;5094060;28;20249;-46
2023/07/11 05:55:26;;;;;;;4.77;2.47;;;18.80;1.00;;;;;;5094048;28;20198;-47
2023/07/11 05:57:51;;;;;;;3.73;2.07;;;18.90;1.00;;;;;;5093765;28;20175;-46
2023/07/11 06:00:17;;;;;;;7.40;2.40;;;19.00;1.00;;;;;;5093977;28;20221;-48
2023/07/11 06:02:43;;;;;;;11.03;2.50;;;19.10;1.00;;;;;;5093651;28;20206;-47
2023/07/11 06:05:09;;;;;;;5.50;2.00;;;19.20;1.00;;;;;;5094199;28;20214;-48
2023/07/11 06:07:34;;;;;;;4.33;2.40;;;19.40;1.00;;;;;;5093935;28;20686;-46
2023/07/11 06:10:01;;;;;;;8.40;2.53;;;19.60;1.00;;;;;;5093681;28;20178;-46
2023/07/11 06:12:26;;;;;;;7.70;2.57;;;19.70;1.00;;;;;;5093625;28;20171;-48
2023/07/11 06:14:52;;;;;;;12.77;2.50;;;19.90;1.00;;;;;;5093565;28;20326;-49
2023/07/11 06:17:17;;;;;;;5.03;2.30;;;20.10;1.00;;;;;;5093606;28;20181;-49
2023/07/11 06:19:43;;;;;;;6.77;2.17;;;20.30;1.00;;;;;;5093761;28;20585;-49
2023/07/11 06:22:09;;;;;;;6.60;2.53;;;20.50;1.00;;;;;;5093412;28;20183;-49
2023/07/11 06:24:36;;;;;;;10.43;2.60;;;20.70;1.00;;;;;;5093670;28;20279;-48
2023/07/11 06:27:03;;;;;;;7.67;2.37;;;21.00;1.00;;;;;;5093678;28;20206;-48
2023/07/11 06:29:29;;;;;;;7.70;2.10;;;21.30;1.00;;;;;;5093314;28;20190;-47
2023/07/11 06:31:54;;;;;;;7.93;2.40;;;21.60;1.00;;;;;;5092406;28;20212;-49
2023/07/11 06:34:20;;;;;;;5.67;2.30;;;21.80;1.00;;;;;;5093312;28;20171;-48
2023/07/11 06:36:46;;;;;;;6.60;2.00;;;22.10;1.00;;;;;;5093231;28;20173;-49
2023/07/11 06:39:11;;;;;;;6.37;2.17;;;22.40;1.00;;;;;;5097208;28;20617;-48
2023/07/11 06:41:38;;;;;;;3.77;2.00;;;22.50;1.00;;;;;;5097371;28;20191;-49
2023/07/11 06:44:06;;;;;;;4.33;2.10;;;22.70;1.00;;;;;;5097567;28;20553;-50
2023/07/11 06:46:34;;;;;;;6.87;2.57;;;22.90;1.00;;;;;;5097153;28;20695;-48
2023/07/11 06:48:59;;;;;;;4.73;2.00;;;23.10;1.00;;;;;;5098530;28;20186;-43
2023/07/11 06:51:25;;;;;;;6.73;2.23;;;23.30;99.90;;;;;;5097468;28;20183;-44
2023/07/11 06:53:51;;;;;;;5.80;2.27;;;23.50;99.90;;;;;;5097164;28;20167;-44
2023/07/11 06:56:17;;;;;;;4.27;2.17;;;23.70;44.10;;;;;;5097220;28;20694;-46
2023/07/11 06:58:42;;;;;;;7.50;2.40;;;23.90;1.00;;;;;;5097256;28;20635;-43
2023/07/11 07:01:09;;;;;;;5.77;2.30;;;24.10;99.90;;;;;;5097491;28;20175;-42
2023/07/11 07:03:34;;;;;;;7.30;2.03;;;24.20;99.90;;;;;;5097005;28;20611;-42
2023/07/11 07:06:05;;;;;;;6.30;2.03;;;24.50;99.90;;;;;;5096815;28;20190;-44
2023/07/11 07:08:32;;;;;;;5.23;2.03;;;24.70;1.00;;;;;;5096823;28;20546;-41
2023/07/11 07:10:57;;;;;;;8.80;2.57;;;24.90;83.60;;;;;;5096702;28;20243;-41
2023/07/11 07:13:24;;;;;;;7.67;2.13;;;25.00;99.90;;;;;;5096995;28;20179;-44
2023/07/11 07:15:52;;;;;;;8.37;2.60;;;25.20;99.90;;;;;;5096845;28;20205;-42
2023/07/11 07:18:17;;;;;;;3.70;2.00;;;25.40;1.00;;;;;;5096579;28;20186;-44
2023/07/11 07:20:45;;;;;;;3.23;1.90;;;25.60;99.90;;;;;;5096688;28;20615;-43
2023/07/11 07:23:10;;;;;;;6.70;2.13;;;25.80;99.90;;;;;;5096439;28;20179;-42
2023/07/11 07:25:36;;;;;;;4.27;2.40;;;26.00;1.00;;;;;;5096469;28;20209;-44
2023/07/11 07:28:03;;;;;;;4.27;2.10;;;26.10;1.00;;;;;;5096325;28;20203;-47
2023/07/11 07:30:28;;;;;;;4.67;2.13;;;26.20;1.00;;;;;;5096243;28;20182;-44
2023/07/11 07:32:54;;;;;;;3.27;2.00;;;26.40;1.00;;;;;;5096644;28;20183;-43
2023/07/11 07:35:20;;;;;;;4.07;1.93;;;26.60;1.00;;;;;;5096076;28;20204;-42
2023/07/11 07:37:45;;;;;;;5.30;2.10;;;26.80;1.00;;;;;;5096521;28;20190;-44
2023/07/11 07:40:11;;;;;;;9.57;1.93;;;26.90;99.90;;;;;;5096039;28;20222;-44
2023/07/11 07:42:36;;;;;;;5.87;2.10;;;27.10;53.70;;;;;;5096968;28;20179;-46
2023/07/11 07:45:04;;;;;;;5.37;2.23;;;27.30;1.00;;;;;;5096291;28;20206;-41
2023/07/11 07:47:29;;;;;;;5.30;1.90;;;27.30;1.00;;;;;;5096326;28;20203;-44
2023/07/11 07:49:55;;;;;;;6.17;1.90;;;27.30;1.00;;;;;;5096054;28;20186;-43
2023/07/11 07:52:21;;;;;;;3.73;2.00;;;27.50;99.90;;;;;;5096353;28;20175;-43
2023/07/11 07:54:46;;;;;;;4.43;2.10;;;27.60;99.90;;;;;;5095848;28;20282;-43
2023/07/11 07:57:12;;;;;;;5.33;2.20;;;27.70;1.00;;;;;;5096047;28;20179;-43
2023/07/11 07:59:38;;;;;;;9.17;2.10;;;27.80;1.00;;;;;;5096224;28;20566;-44
2023/07/11 08:02:03;;;;;;;4.63;2.00;;;27.90;1.00;;;;;;5096189;28;20186;-43
2023/07/11 08:04:30;;;;;;;3.10;1.80;;;28.10;99.90;;;;;;5095981;28;20171;-42
2023/07/11 08:06:56;;;;;;;4.17;2.00;;;28.20;1.00;;;;;;5095954;28;20253;-42
2023/07/11 08:09:22;;;;;;;4.77;2.07;;;28.30;1.00;;;;;;5095775;28;20186;-42
2023/07/11 08:11:47;;;;;;;4.10;1.60;;;28.30;1.00;;;;;;5096307;28;20182;-42
2023/07/11 08:14:13;;;;;;;3.60;1.77;;;28.30;99.90;;;;;;5095581;28;20214;-45
2023/07/11 08:16:39;;;;;;;3.53;1.87;;;28.30;1.00;;;;;;5095762;28;20206;-44
2023/07/11 08:19:05;;;;;;;5.80;1.90;;;28.40;99.90;;;;;;5095716;28;20179;-46
2023/07/11 08:21:31;;;;;;;4.07;1.70;;;28.40;1.00;;;;;;5095516;28;20632;-42
2023/07/11 08:23:57;;;;;;;7.10;2.23;;;28.40;66.40;;;;;;5093996;28;20240;-44
2023/07/11 08:26:23;;;;;;;11.20;2.13;;;28.30;99.90;;;;;;5093935;28;20199;-42
2023/07/11 08:28:52;;;;;;;6.87;2.00;;;28.40;99.90;;;;;;5095457;28;20171;-43
2023/07/11 08:31:17;;;;;;;5.00;1.87;;;28.30;99.90;;;;;;5095983;28;20253;-43
2023/07/11 08:33:43;;;;;;;5.67;2.03;;;28.30;99.90;;;;;;5095094;28;20257;-41
2023/07/11 08:36:09;;;;;;;6.77;1.90;;;28.10;99.90;;;;;;5095287;28;20670;-42
2023/07/11 08:38:35;;;;;;;4.00;2.43;;;28.10;99.90;;;;;;5095072;28;20187;-44
2023/07/11 08:41:38;;;;;;;4.80;1.67;;;28.00;99.90;;;;;;5094937;28;20678;-42
2023/07/11 08:44:15;;;;;;;3.93;2.20;;;27.90;99.90;;;;;;5095241;28;20175;-43
2023/07/11 08:47:04;;;;;;;5.37;2.17;;;27.80;99.90;;;;;;5094883;28;20673;-43
2023/07/11 08:49:37;;;;;;;8.43;3.13;;;27.70;99.90;;;;;;5096013;28;20245;-48
2023/07/11 08:52:05;;;;;;;3.97;2.10;;;27.60;99.90;;;;;;5095120;28;20174;-47
2023/07/11 08:54:34;;;;;;;4.70;2.27;;;27.60;99.90;;;;;;5094586;28;20183;-47
2023/07/11 08:57:00;;;;;;;9.23;4.23;;;27.60;99.90;;;;;;5094881;28;20175;-48
2023/07/11 08:59:45;;;;;;;6.87;2.30;;;27.60;99.90;;;;;;5095268;28;20179;-48
2023/07/11 09:02:29;;;;;;;5.83;2.30;;;27.70;99.90;;;;;;5094717;28;20197;-46
2023/07/11 09:04:55;;;;;;;5.00;2.10;;;27.70;99.90;;;;;;5094519;28;20205;-48
2023/07/11 09:07:39;;;;;;;6.47;2.13;;;27.80;99.90;;;;;;5094871;28;20311;-48
2023/07/11 09:10:40;;;;;;;5.73;1.70;;;28.00;99.90;;;;;;5093463;28;20179;-46
2023/07/11 09:13:26;;;;;;;7.63;2.97;;;28.20;99.90;;;;;;5094372;28;20171;-48
2023/07/11 09:16:09;;;;;;;3.17;1.77;;;28.30;99.90;;;;;;5094344;28;20283;-46
2023/07/11 09:19:01;;;;;;;5.40;2.13;;;28.50;99.90;;;;;;5094235;28;20174;-47
2023/07/11 09:21:27;;;;;;;6.63;1.90;;;28.70;99.90;;;;;;5094214;28;20218;-48
2023/07/11 09:24:33;;;;;;;6.47;1.63;;;28.90;99.90;;;;;;5094132;28;20183;-48
2023/07/11 09:27:20;;;;;;;6.23;1.83;;;29.00;99.90;;;;;;5094328;28;20187;-47
2023/07/11 09:29:48;;;;;;;6.33;1.60;;;29.30;99.90;;;;;;5094079;28;20224;-47
2023/07/11 09:32:16;;;;;;;2.80;1.50;;;29.30;99.90;;;;;;5094249;28;20577;-47
2023/07/11 09:34:44;;;;;;;6.83;2.10;;;29.30;99.90;;;;;;5093859;28;20246;-48
2023/07/11 09:37:23;;;;;;;4.90;1.67;;;29.40;99.90;;;;;;5093828;28;20179;-49
2023/07/11 09:39:56;;;;;;;2.73;1.70;;;29.40;99.90;;;;;;5093748;28;20230;-49
2023/07/11 09:42:36;;;;;;;2.80;1.70;;;29.60;99.90;;;;;;5094193;28;20195;-48
2023/07/11 09:45:10;;;;;;;5.67;2.20;;;29.80;99.90;;;;;;5093766;28;20198;-48
2023/07/11 09:47:38;;;;;;;7.00;1.93;;;29.90;99.90;;;;;;5093754;28;20194;-48
2023/07/11 09:50:31;;;;;;;4.63;2.17;;;30.00;99.90;;;;;;5095131;28;20215;-43
2023/07/11 09:53:00;;;;;;;4.68;1.80;;;30.00;99.90;;;;;;5093858;28;20170;-43
2023/07/11 09:55:30;;;;;;;14.85;1.88;;;30.10;99.90;;;;;;5094097;28;20214;-43
2023/07/11 09:57:56;;;;;;;3.90;1.80;;;30.10;99.90;;;;;;5094062;28;20628;-44
2023/07/11 10:00:22;;;;;;;3.80;1.95;;;30.10;99.90;;;;;;5093807;28;20175;-44
2023/07/11 10:02:48;;;;;;;6.95;2.22;;;30.10;99.90;;;;;;5094035;28;20183;-44
2023/07/11 10:05:20;;;;;;;4.40;2.00;;;30.20;99.90;;;;;;5093386;28;20191;-43
2023/07/11 10:08:12;;;;;;;4.45;1.65;;;30.30;99.90;;;;;;5093363;28;20229;-42
2023/07/11 10:10:44;;;;;;;5.90;1.85;;;30.40;99.90;;;;;;5093692;28;20639;-43
2023/07/11 10:13:11;;;;;;;7.60;2.10;;;30.50;99.90;;;;;;5092921;28;20191;-44
2023/07/11 10:15:37;;;;;;;4.05;1.85;;;30.60;99.90;;;;;;5093480;28;20191;-44
2023/07/11 10:18:04;;;;;;;7.68;2.17;;;30.60;99.90;;;;;;5093888;28;20266;-42
2023/07/11 10:20:31;;;;;;;4.93;2.08;;;30.70;99.90;;;;;;5093616;28;20604;-44
2023/07/11 10:23:05;;;;;;;2.30;1.42;;;30.70;99.90;;;;;;5093270;28;20198;-43
2023/07/11 10:25:31;;;;;;;3.58;2.00;;;30.70;99.90;;;;;;5093437;28;20674;-43
2023/07/11 10:28:03;;;;;;;6.03;1.58;;;30.70;99.90;;;;;;5091969;28;20608;-43
2023/07/11 10:30:32;;;;;;;4.15;1.73;;;30.80;99.90;;;;;;5093498;28;20316;-44
2023/07/11 10:33:30;;;;;;;7.30;2.20;;;30.90;99.90;;;;;;5093231;28;20320;-44
2023/07/11 10:36:33;;;;;;;5.03;1.98;;;31.00;99.90;;;;;;5093411;28;20573;-44
2023/07/11 10:39:04;;;;;;;6.55;1.60;;;31.20;99.90;;;;;;5092749;28;20210;-44
2023/07/11 10:41:38;;;;;;;6.32;2.22;;;31.20;99.90;;;;;;5093433;28;20499;-44
2023/07/11 10:44:10;;;;;;;5.38;2.33;;;31.30;99.90;;;;;;5093463;28;20181;-44
2023/07/11 10:46:45;;;;;;;3.70;1.88;;;31.30;99.90;;;;;;5093059;28;20210;-44
2023/07/11 10:49:23;;;;;;;4.22;1.95;;;31.40;99.90;;;;;;5094632;28;20199;-49
2023/07/11 10:52:07;;;;;;;4.78;2.00;;;31.40;99.90;;;;;;5093032;28;20175;-50
2023/07/11 10:54:44;;;;;;;5.32;2.30;;;31.40;99.90;;;;;;5092955;28;20603;-51
2023/07/11 10:57:34;;;;;;;4.22;2.22;;;31.60;99.90;;;;;;5093269;28;20211;-50
2023/07/11 11:00:00;;;;;;;4.85;2.03;;;31.50;99.90;;;;;;5093657;28;20155;-50
2023/07/11 11:02:44;;;;;;;2.88;1.58;;;31.50;99.90;;;;;;5093302;28;20223;-51
2023/07/11 11:05:38;;;;;;;3.38;1.90;;;31.60;99.90;;;;;;5093049;28;20187;-49
2023/07/11 11:08:15;;;;;;;4.28;1.95;;;31.70;99.90;;;;;;5091746;28;20225;-51
2023/07/11 11:11:01;;;;;;;4.20;2.08;;;31.80;99.90;;;;;;5093147;28;20498;-51
2023/07/11 11:13:36;;;;;;;2.58;1.75;;;31.90;99.90;;;;;;5093012;28;20159;-51
2023/07/11 11:16:18;;;;;;;5.90;1.90;;;32.00;99.90;;;;;;5092701;28;20755;-51
2023/07/11 11:19:25;;;;;;;2.38;1.55;;;32.00;99.90;;;;;;5093143;28;20165;-51
2023/07/11 11:22:04;;;;;;;6.40;2.30;;;32.00;99.90;;;;;;5092676;28;20265;-51
2023/07/11 11:25:00;;;;;;;5.68;1.90;;;32.10;99.90;;;;;;5095920;28;20534;-51
2023/07/11 11:27:32;;;;;;;5.22;1.95;;;32.20;99.90;;;;;;5096595;28;20248;-51
2023/07/11 11:30:06;;;;;;;3.80;2.25;;;32.30;99.90;;;;;;5096310;28;20179;-50
2023/07/11 11:32:55;;;;;;;6.75;1.90;;;32.40;99.90;;;;;;5096554;28;20158;-51
2023/07/11 11:35:42;;;;;;;4.57;1.88;;;32.50;99.90;;;;;;5096534;28;20248;-50
2023/07/11 11:38:25;;;;;;;4.97;2.03;;;32.50;99.90;;;;;;5095964;28;20274;-50
2023/07/11 11:40:55;;;;;;;3.10;1.92;;;32.50;99.90;;;;;;5096201;28;20237;-51
2023/07/11 11:43:25;;;;;;;4.10;2.03;;;32.60;99.90;;;;;;5096029;28;20175;-50
2023/07/11 11:45:52;;;;;;;3.33;2.00;;;32.60;99.90;;;;;;5096001;28;20195;-51
2023/07/11 11:48:21;;;;;;;4.78;2.20;;;32.70;99.90;;;;;;5097215;28;20559;-50
2023/07/11 11:50:48;;;;;;;4.75;1.73;;;32.80;99.90;;;;;;5096524;28;20189;-49
2023/07/11 11:53:19;;;;;;;6.07;1.90;;;32.80;99.90;;;;;;5095967;28;20246;-50
2023/07/11 11:55:59;;;;;;;4.68;1.90;;;32.90;99.90;;;;;;5096036;28;20197;-50
2023/07/11 11:58:28;;;;;;;1.92;1.63;;;32.90;99.90;;;;;;5095935;28;20209;-50
2023/07/11 12:00:55;;;;;;;3.22;2.10;;;32.80;99.90;;;;;;5096126;28;20213;-50
2023/07/11 12:03:34;;;;;;;3.92;1.95;;;32.90;99.90;;;;;;5095788;28;20186;-50
2023/07/11 12:06:30;;;;;;;4.32;1.95;;;32.90;99.90;;;;;;5095695;28;20248;-50
2023/07/11 12:09:17;;;;;;;2.63;1.88;;;32.90;99.90;;;;;;5095762;28;20159;-50
2023/07/11 12:12:03;;;;;;;4.80;1.55;;;33.00;99.90;;;;;;5095682;28;20257;-49
2023/07/11 12:14:35;;;;;;;3.70;1.80;;;33.00;99.90;;;;;;5096109;28;20220;-50
2023/07/11 12:17:00;;;;;;;3.70;1.85;;;33.00;99.90;;;;;;5095573;28;20167;-49
2023/07/11 12:19:41;;;;;;;4.72;1.83;;;32.90;99.90;;;;;;5095561;28;20194;-49
2023/07/11 12:22:08;;;;;;;3.47;2.00;;;32.90;99.80;;;;;;5094667;28;20246;-50
2023/07/11 12:24:33;;;;;;;4.43;1.80;;;32.90;99.90;;;;;;5095658;28;20261;-49
2023/07/11 12:27:09;;;;;;;5.13;2.10;;;33.00;99.90;;;;;;5095654;28;20754;-50
2023/07/11 12:29:34;;;;;;;4.38;1.88;;;33.00;99.90;;;;;;5095557;28;20197;-50
2023/07/11 12:32:31;;;;;;;4.65;1.85;;;33.10;99.90;;;;;;5095292;28;20195;-49
2023/07/11 12:35:03;;;;;;;5.93;1.80;;;33.20;99.90;;;;;;5094794;28;20249;-48
2023/07/11 12:37:46;;;;;;;4.28;1.85;;;33.30;99.90;;;;;;5095158;28;20519;-50
2023/07/11 12:40:20;;;;;;;3.95;1.15;;;33.40;99.90;;;;;;5095222;28;20678;-51
2023/07/11 12:42:55;;;;;;;3.90;1.75;;;33.40;98.90;;;;;;5095607;28;20556;-50
2023/07/11 12:45:24;;;;;;;3.85;1.50;;;33.40;99.50;;;;;;5095324;28;20339;-50
2023/07/11 12:48:05;;;;;;;2.65;1.65;;;33.50;99.90;;;;;;5095189;28;20260;-50
2023/07/11 12:50:43;;;;;;;5.85;1.90;;;33.60;99.90;;;;;;5095269;28;20494;-50
2023/07/11 12:53:10;;;;;;;4.53;2.17;;;33.80;99.70;;;;;;5095165;28;20603;-50
2023/07/11 12:55:36;;;;;;;3.60;2.05;;;33.80;99.90;;;;;;5094876;28;20223;-50
2023/07/11 12:58:01;;;;;;;4.13;1.98;;;33.90;99.90;;;;;;5095017;28;20175;-51
2023/07/11 13:00:29;;;;;;;5.32;2.00;;;34.00;99.30;;;;;;5094873;28;20244;-51
2023/07/11 13:03:26;;;;;;;3.03;1.85;;;34.00;99.10;;;;;;5094534;28;20262;-50
2023/07/11 13:05:56;;;;;;;3.15;1.88;;;33.90;98.20;;;;;;5093674;28;20213;-50